Time;durP1;ratioP1;P1;durP2;ratioP2;P2;SDS_P1;SDS_P2;PMS_P1;PMS_P2;Temp;Humidity;BMP_temperature;BMP_pressure;BME280_temperature;BME280_humidity;BME280_pressure;Samples;Min_cycle;Max_cycle;Signal;HPM_P1;HPM_P2
2024/04/05 00:01:08;;;;;;;3.45;1.65;;;;;;;;;;5018263;28;20077;-58
2024/04/05 00:03:34;;;;;;;5.50;1.85;;;;;;;;;;5011306;28;20061;-58
2024/04/05 00:06:01;;;;;;;5.85;1.92;;;;;;;;;;5024591;28;20041;-58
2024/04/05 00:08:30;;;;;;;4.22;1.40;;;;;;;;;;5005403;28;20046;-59
2024/04/05 00:10:57;;;;;;;3.33;1.20;;;;;;;;;;5028108;28;20092;-59
2024/04/05 00:13:23;;;;;;;4.57;1.88;;;;;;;;;;5018583;28;20524;-59
2024/04/05 00:15:51;;;;;;;4.93;2.25;;;;;;;;;;5014472;28;20054;-59
2024/04/05 00:18:18;;;;;;;4.40;1.92;;;;;;;;;;5015700;28;20107;-59
2024/04/05 00:20:45;;;;;;;4.85;1.73;;;;;;;;;;5023558;28;20056;-58
2024/04/05 00:23:11;;;;;;;5.43;2.30;;;;;;;;;;5018318;28;20046;-59
2024/04/05 00:25:41;;;;;;;7.03;2.30;;;;;;;;;;5025772;28;20042;-59
2024/04/05 00:28:07;;;;;;;4.40;1.90;;;;;;;;;;5009919;28;20128;-59
2024/04/05 00:30:35;;;;;;;4.50;1.92;;;;;;;;;;5011657;28;20283;-57
2024/04/05 00:33:01;;;;;;;4.72;2.05;;;;;;;;;;5014580;28;20054;-59
2024/04/05 00:35:28;;;;;;;6.68;2.20;;;;;;;;;;5031162;28;20056;-59
2024/04/05 00:37:54;;;;;;;6.25;2.13;;;;;;;;;;5031254;28;20057;-59
2024/04/05 00:40:21;;;;;;;4.80;2.60;;;;;;;;;;5031061;28;20054;-59
2024/04/05 00:42:49;;;;;;;8.23;3.20;;;;;;;;;;5030041;28;20038;-58
2024/04/05 00:45:16;;;;;;;5.20;2.92;;;;;;;;;;5012453;28;20053;-57
2024/04/05 00:47:42;;;;;;;5.75;3.05;;;;;;;;;;5027587;28;20053;-54
2024/04/05 00:50:09;;;;;;;4.95;2.90;;;;;;;;;;5031053;28;20424;-57
2024/04/05 00:52:35;;;;;;;4.85;2.90;;;;;;;;;;5030801;28;20045;-58
2024/04/05 00:55:03;;;;;;;6.57;2.75;;;;;;;;;;5030350;28;20528;-57
2024/04/05 00:57:29;;;;;;;4.28;2.53;;;;;;;;;;5025541;28;20050;-58
2024/04/05 00:59:58;;;;;;;4.15;2.40;;;;;;;;;;5003992;28;20053;-58
2024/04/05 01:02:24;;;;;;;4.13;2.10;;;;;;;;;;5019544;28;20041;-57
2024/04/05 01:04:51;;;;;;;4.75;2.15;;;;;;;;;;5027294;28;20049;-58
2024/04/05 01:07:17;;;;;;;5.63;2.60;;;;;;;;;;5031174;28;20057;-58
2024/04/05 01:09:44;;;;;;;6.22;2.40;;;;;;;;;;5015381;28;20403;-58
2024/04/05 01:12:10;;;;;;;4.70;2.17;;;;;;;;;;5027852;28;20065;-58
2024/04/05 01:14:36;;;;;;;7.88;2.53;;;;;;;;;;5030664;28;20049;-58
2024/04/05 01:17:04;;;;;;;4.63;2.00;;;;;;;;;;5030888;28;20416;-58
2024/04/05 01:19:32;;;;;;;4.22;2.10;;;;;;;;;;5020237;28;20132;-59
2024/04/05 01:21:59;;;;;;;5.80;2.55;;;;;;;;;;5012917;28;20099;-59
2024/04/05 01:24:28;;;;;;;7.30;3.50;;;;;;;;;;5030448;28;20045;-57
2024/04/05 01:26:54;;;;;;;3.92;2.45;;;;;;;;;;5030440;28;20058;-58
2024/04/05 01:29:20;;;;;;;5.57;2.10;;;;;;;;;;5026650;28;20060;-58
2024/04/05 01:31:46;;;;;;;4.05;1.90;;;;;;;;;;5013481;28;20132;-56
2024/04/05 01:34:14;;;;;;;4.13;2.10;;;;;;;;;;5013923;28;20133;-57
2024/04/05 01:36:40;;;;;;;4.18;2.13;;;;;;;;;;5018062;28;20515;-57
2024/04/05 01:39:07;;;;;;;4.25;1.98;;;;;;;;;;5025420;28;20137;-58
2024/04/05 01:41:36;;;;;;;8.25;3.10;;;;;;;;;;5028183;28;20056;-56
2024/04/05 01:44:03;;;;;;;4.38;2.08;;;;;;;;;;5031700;28;20436;-58
2024/04/05 01:46:29;;;;;;;3.70;2.05;;;;;;;;;;5021531;28;20194;-58
2024/04/05 01:48:56;;;;;;;5.95;2.30;;;;;;;;;;5029153;28;20049;-58
2024/04/05 01:51:22;;;;;;;5.53;2.15;;;;;;;;;;5032814;28;20049;-55
2024/04/05 01:53:49;;;;;;;5.25;2.08;;;;;;;;;;5019056;28;20076;-58
2024/04/05 01:56:15;;;;;;;4.85;2.22;;;;;;;;;;5020553;28;20046;-58
2024/04/05 01:58:43;;;;;;;5.85;1.85;;;;;;;;;;5021338;28;20060;-58
2024/04/05 02:01:09;;;;;;;4.32;1.80;;;;;;;;;;5014968;28;20057;-58
2024/04/05 02:03:36;;;;;;;5.70;2.00;;;;;;;;;;5011397;28;20386;-58
2024/04/05 02:06:11;;;;;;;4.28;2.50;;;;;;;;;;5033067;28;20052;-58
2024/04/05 02:08:38;;;;;;;7.28;2.22;;;;;;;;;;5027142;28;20094;-57
2024/04/05 02:11:04;;;;;;;4.43;2.00;;;;;;;;;;5013493;28;20563;-59
2024/04/05 02:13:31;;;;;;;3.63;1.77;;;;;;;;;;5025753;28;20085;-57
2024/04/05 02:15:58;;;;;;;4.28;1.80;;;;;;;;;;5033183;28;20049;-57
2024/04/05 02:18:25;;;;;;;5.47;3.25;;;;;;;;;;5033216;28;20049;-58
2024/04/05 02:20:53;;;;;;;5.80;1.85;;;;;;;;;;5027421;28;20530;-58
2024/04/05 02:23:20;;;;;;;5.10;2.20;;;;;;;;;;5013509;28;20084;-58
2024/04/05 02:25:46;;;;;;;6.35;2.35;;;;;;;;;;5021282;28;20064;-58
2024/04/05 02:28:12;;;;;;;4.63;1.90;;;;;;;;;;5017527;28;20050;-58
2024/04/05 02:30:39;;;;;;;6.63;1.80;;;;;;;;;;5019212;28;20513;-59
2024/04/05 02:33:07;;;;;;;4.30;2.00;;;;;;;;;;5024136;28;20046;-59
2024/04/05 02:35:33;;;;;;;4.68;2.50;;;;;;;;;;5017981;28;20458;-58
2024/04/05 02:38:00;;;;;;;5.28;1.83;;;;;;;;;;5030589;28;20055;-58
2024/04/05 02:40:26;;;;;;;4.15;1.65;;;;;;;;;;5023481;28;20430;-58
2024/04/05 02:42:53;;;;;;;3.88;2.25;;;;;;;;;;5011456;28;20056;-59
2024/04/05 02:45:19;;;;;;;6.25;3.03;;;;;;;;;;5020518;28;20054;-58
2024/04/05 02:47:46;;;;;;;6.43;2.17;;;;;;;;;;5015781;28;20046;-57
2024/04/05 02:50:13;;;;;;;5.38;2.28;;;;;;;;;;5019976;28;20050;-59
2024/04/05 02:52:40;;;;;;;4.93;1.92;;;;;;;;;;5019219;28;20069;-58
2024/04/05 02:55:06;;;;;;;3.95;2.15;;;;;;;;;;5020799;28;20046;-59
2024/04/05 02:57:33;;;;;;;5.05;2.30;;;;;;;;;;5032542;28;20079;-56
2024/04/05 02:59:59;;;;;;;5.20;2.38;;;;;;;;;;5031034;28;20049;-59
2024/04/05 03:02:26;;;;;;;5.40;2.30;;;;;;;;;;5012319;28;20050;-57
2024/04/05 03:04:52;;;;;;;6.47;2.78;;;;;;;;;;5012348;28;20057;-58
2024/04/05 03:07:20;;;;;;;6.57;2.58;;;;;;;;;;5012634;28;20115;-59
2024/04/05 03:09:46;;;;;;;7.05;2.22;;;;;;;;;;5022090;28;20050;-58
2024/04/05 03:12:13;;;;;;;4.10;2.47;;;;;;;;;;5032365;28;20452;-57
2024/04/05 03:14:39;;;;;;;4.00;1.77;;;;;;;;;;5032052;28;20049;-59
2024/04/05 03:17:07;;;;;;;6.13;2.40;;;;;;;;;;5021911;28;20056;-59
2024/04/05 03:19:33;;;;;;;3.78;2.00;;;;;;;;;;5020930;28;20053;-59
2024/04/05 03:22:00;;;;;;;5.10;2.38;;;;;;;;;;5025599;28;20052;-58
2024/04/05 03:24:27;;;;;;;5.72;2.22;;;;;;;;;;5031626;28;20049;-58
2024/04/05 03:26:54;;;;;;;4.72;2.20;;;;;;;;;;5015255;28;20073;-59
2024/04/05 03:29:20;;;;;;;5.50;2.30;;;;;;;;;;5014977;28;20060;-59
2024/04/05 03:31:49;;;;;;;5.88;2.42;;;;;;;;;;5032147;28;20057;-59
2024/04/05 03:34:15;;;;;;;4.63;2.40;;;;;;;;;;5031717;28;20452;-59
2024/04/05 03:36:42;;;;;;;7.75;3.25;;;;;;;;;;5031896;28;20103;-58
2024/04/05 03:39:10;;;;;;;5.22;2.92;;;;;;;;;;5008651;28;20054;-57
2024/04/05 03:41:37;;;;;;;5.63;2.13;;;;;;;;;;5023663;28;20052;-59
2024/04/05 03:44:05;;;;;;;5.63;2.45;;;;;;;;;;5031057;28;20056;-54
2024/04/05 03:46:35;;;;;;;4.95;2.20;;;;;;;;;;5014721;28;20079;-59
2024/04/05 03:49:02;;;;;;;4.68;2.00;;;;;;;;;;5021367;28;20492;-59
2024/04/05 03:51:28;;;;;;;4.22;2.40;;;;;;;;;;5031431;28;20049;-59
2024/04/05 03:53:55;;;;;;;4.72;2.15;;;;;;;;;;5022511;28;20061;-58
2024/04/05 03:56:21;;;;;;;4.32;2.28;;;;;;;;;;5026905;28;20054;-59
2024/04/05 03:58:49;;;;;;;5.35;2.25;;;;;;;;;;5019742;28;20057;-59
2024/04/05 04:01:16;;;;;;;4.00;1.80;;;;;;;;;;5021293;28;20080;-58
2024/04/05 04:03:44;;;;;;;3.75;1.85;;;;;;;;;;5011966;28;20078;-59
2024/04/05 04:06:10;;;;;;;4.63;2.28;;;;;;;;;;5018993;28;20057;-58
2024/04/05 04:08:37;;;;;;;5.15;2.00;;;;;;;;;;5005295;28;20137;-59
2024/04/05 04:11:04;;;;;;;3.83;2.05;;;;;;;;;;5019308;28;20056;-59
2024/04/05 04:13:31;;;;;;;3.10;1.85;;;;;;;;;;5025747;28;20057;-59
2024/04/05 04:15:58;;;;;;;4.10;2.30;;;;;;;;;;5010513;28;20058;-59
2024/04/05 04:18:26;;;;;;;6.68;3.05;;;;;;;;;;5005053;28;20089;-58
2024/04/05 04:20:52;;;;;;;4.85;2.42;;;;;;;;;;5011403;28;20046;-59
2024/04/05 04:23:19;;;;;;;4.97;2.10;;;;;;;;;;5007353;28;20046;-59
2024/04/05 04:25:46;;;;;;;4.63;2.40;;;;;;;;;;5031426;28;20057;-57
2024/04/05 04:28:13;;;;;;;5.97;1.98;;;;;;;;;;5012496;28;20132;-56
2024/04/05 04:30:39;;;;;;;4.82;2.00;;;;;;;;;;5011149;28;20072;-57
2024/04/05 04:33:09;;;;;;;4.35;2.08;;;;;;;;;;5011303;28;20045;-59
2024/04/05 04:35:34;;;;;;;3.80;1.92;;;;;;;;;;5011671;28;20060;-59
2024/04/05 04:38:01;;;;;;;4.25;2.42;;;;;;;;;;5010218;28;20136;-57
2024/04/05 04:40:27;;;;;;;3.65;1.95;;;;;;;;;;4998244;28;20421;-58
2024/04/05 04:42:54;;;;;;;3.95;1.80;;;;;;;;;;5019511;28;20049;-58
2024/04/05 04:45:20;;;;;;;5.30;2.28;;;;;;;;;;5030892;28;20049;-59
2024/04/05 04:47:47;;;;;;;4.70;2.20;;;;;;;;;;5031101;28;20053;-57
2024/04/05 04:50:15;;;;;;;4.50;2.58;;;;;;;;;;5027843;28;20054;-59
2024/04/05 04:52:42;;;;;;;4.72;2.20;;;;;;;;;;5025821;28;20053;-59
2024/04/05 04:55:10;;;;;;;5.32;2.10;;;;;;;;;;5019279;28;20052;-59
2024/04/05 04:57:37;;;;;;;4.35;2.10;;;;;;;;;;5020857;28;20072;-55
2024/04/05 05:00:04;;;;;;;4.68;2.05;;;;;;;;;;5023472;28;20414;-58
2024/04/05 05:02:31;;;;;;;4.13;1.88;;;;;;;;;;5027737;28;20054;-54
2024/04/05 05:04:57;;;;;;;3.78;2.15;;;;;;;;;;5027854;28;20204;-56
2024/04/05 05:07:25;;;;;;;5.78;2.40;;;;;;;;;;5034475;28;20557;-55
2024/04/05 05:09:51;;;;;;;4.40;2.00;;;;;;;;;;5034789;28;20482;-52
2024/04/05 05:12:18;;;;;;;5.75;2.33;;;;;;;;;;5034290;28;20056;-53
2024/04/05 05:14:44;;;;;;;5.38;2.53;;;;;;;;;;5034076;28;20060;-57
2024/04/05 05:17:11;;;;;;;4.95;2.20;;;;;;;;;;5028054;28;20045;-55
2024/04/05 05:19:37;;;;;;;3.78;2.13;;;;;;;;;;5034195;28;20057;-58
2024/04/05 05:22:04;;;;;;;3.55;1.85;;;;;;;;;;5034197;28;20052;-59
2024/04/05 05:24:32;;;;;;;4.72;2.35;;;;;;;;;;5034146;28;20107;-54
2024/04/05 05:26:59;;;;;;;4.30;2.83;;;;;;;;;;5034152;28;20045;-52
2024/04/05 05:29:24;;;;;;;4.45;1.98;;;;;;;;;;5034153;28;20050;-56
2024/04/05 05:31:51;;;;;;;4.13;2.00;;;;;;;;;;5034169;28;20425;-56
2024/04/05 05:34:17;;;;;;;5.00;2.00;;;;;;;;;;5033802;28;20052;-59
2024/04/05 05:36:44;;;;;;;4.07;1.90;;;;;;;;;;5024822;28;20050;-59
2024/04/05 05:39:11;;;;;;;4.63;1.90;;;;;;;;;;5024268;28;20050;-57
2024/04/05 05:41:40;;;;;;;3.88;1.92;;;;;;;;;;5034157;28;20050;-55
2024/04/05 05:44:05;;;;;;;4.13;2.10;;;;;;;;;;5033054;28;20425;-58
2024/04/05 05:46:32;;;;;;;3.70;1.88;;;;;;;;;;5020413;28;20046;-57
2024/04/05 05:49:00;;;;;;;4.88;1.77;;;;;;;;;;5028721;28;20429;-54
2024/04/05 05:51:27;;;;;;;4.30;1.88;;;;;;;;;;5033639;28;20083;-59
2024/04/05 05:53:53;;;;;;;3.40;1.75;;;;;;;;;;5033599;28;20115;-55
2024/04/05 05:56:21;;;;;;;3.90;1.70;;;;;;;;;;5031897;28;20049;-56
2024/04/05 05:58:49;;;;;;;5.60;1.77;;;;;;;;;;5026953;28;20409;-57
2024/04/05 06:01:15;;;;;;;4.32;1.95;;;;;;;;;;5026833;28;20053;-55
2024/04/05 06:03:42;;;;;;;4.13;1.90;;;;;;;;;;5027365;28;20041;-55
2024/04/05 06:06:08;;;;;;;5.53;2.17;;;;;;;;;;5033722;28;20087;-57
2024/04/05 06:08:39;;;;;;;3.30;1.58;;;;;;;;;;5033619;28;20049;-58
2024/04/05 06:11:05;;;;;;;3.55;1.80;;;;;;;;;;5032158;28;20630;-58
2024/04/05 06:13:32;;;;;;;4.35;1.80;;;;;;;;;;5032976;28;20081;-55
2024/04/05 06:15:59;;;;;;;5.95;2.17;;;;;;;;;;5011607;28;20092;-58
2024/04/05 06:18:28;;;;;;;4.00;1.73;;;;;;;;;;5014571;28;20045;-58
2024/04/05 06:20:55;;;;;;;4.43;1.92;;;;;;;;;;5018807;28;20405;-52
2024/04/05 06:23:22;;;;;;;4.10;1.83;;;;;;;;;;5019606;28;20100;-58
2024/04/05 06:25:53;;;;;;;4.80;2.00;;;;;;;;;;5018250;28;20111;-54
2024/04/05 06:28:20;;;;;;;3.95;1.80;;;;;;;;;;5014455;28;20041;-58
2024/04/05 06:30:46;;;;;;;4.03;2.03;;;;;;;;;;5017303;28;20054;-55
2024/04/05 06:33:14;;;;;;;4.97;1.85;;;;;;;;;;5017486;28;20053;-59
2024/04/05 06:35:40;;;;;;;5.32;2.40;;;;;;;;;;5008196;28;20419;-58
2024/04/05 06:38:08;;;;;;;4.07;1.90;;;;;;;;;;5010182;28;20057;-58
2024/04/05 06:40:34;;;;;;;3.95;1.70;;;;;;;;;;5005265;28;20536;-55
2024/04/05 06:43:01;;;;;;;4.15;2.13;;;;;;;;;;5017245;28;20046;-57
2024/04/05 06:45:27;;;;;;;3.58;1.73;;;;;;;;;;5012710;28;20042;-57
2024/04/05 06:47:55;;;;;;;4.55;1.77;;;;;;;;;;5013991;28;20111;-58
2024/04/05 06:50:22;;;;;;;5.15;1.80;;;;;;;;;;5010956;28;20052;-60
2024/04/05 06:52:49;;;;;;;4.40;2.05;;;;;;;;;;5018656;28;20563;-54
2024/04/05 06:55:19;;;;;;;6.63;2.67;;;;;;;;;;5012618;28;20042;-56
2024/04/05 06:57:45;;;;;;;4.20;1.70;;;;;;;;;;5013019;28;20053;-56
2024/04/05 07:00:15;;;;;;;4.25;1.95;;;;;;;;;;5011728;28;20494;-54
2024/04/05 07:02:42;;;;;;;4.07;1.92;;;;;;;;;;5024422;28;20498;-58
2024/04/05 07:05:08;;;;;;;5.55;1.80;;;;;;;;;;5031084;28;20485;-55
2024/04/05 07:07:37;;;;;;;4.78;2.03;;;;;;;;;;5032709;28;20046;-56
2024/04/05 07:10:04;;;;;;;5.45;1.70;;;;;;;;;;5029945;28;20057;-58
2024/04/05 07:12:31;;;;;;;5.85;1.90;;;;;;;;;;5015572;28;20049;-58
2024/04/05 07:14:57;;;;;;;5.05;2.45;;;;;;;;;;5008731;28;20045;-58
2024/04/05 07:17:24;;;;;;;4.88;2.42;;;;;;;;;;5008723;28;20057;-59
2024/04/05 07:19:50;;;;;;;4.95;2.10;;;;;;;;;;5004744;28;20057;-55
2024/04/05 07:22:17;;;;;;;4.90;2.00;;;;;;;;;;5010180;28;20098;-55
2024/04/05 07:24:45;;;;;;;3.80;2.20;;;;;;;;;;5013102;28;20085;-56
2024/04/05 07:27:12;;;;;;;5.38;1.98;;;;;;;;;;5017196;28;20412;-54
2024/04/05 07:29:43;;;;;;;4.45;1.90;;;;;;;;;;5010237;28;20126;-60
2024/04/05 07:32:10;;;;;;;5.40;2.28;;;;;;;;;;5016279;28;20053;-61
2024/04/05 07:34:36;;;;;;;5.53;2.13;;;;;;;;;;5020427;28;20516;-59
2024/04/05 07:37:03;;;;;;;4.93;1.92;;;;;;;;;;5025150;28;20117;-61
2024/04/05 07:39:30;;;;;;;4.38;1.85;;;;;;;;;;5027080;28;20060;-61
2024/04/05 07:41:58;;;;;;;6.30;2.10;;;;;;;;;;5017103;28;20053;-59
2024/04/05 07:44:24;;;;;;;4.00;1.75;;;;;;;;;;5009996;28;20152;-59
2024/04/05 07:46:51;;;;;;;4.85;1.88;;;;;;;;;;5009261;28;20530;-60
2024/04/05 07:49:17;;;;;;;3.22;1.52;;;;;;;;;;4999735;28;20061;-60
2024/04/05 07:51:43;;;;;;;6.43;1.80;;;;;;;;;;5008034;28;20413;-64
2024/04/05 07:54:11;;;;;;;4.30;2.03;;;;;;;;;;5008490;28;20050;-62
2024/04/05 07:56:38;;;;;;;4.10;1.63;;;;;;;;;;5013779;28;20561;-62
2024/04/05 07:59:06;;;;;;;4.45;1.67;;;;;;;;;;5014121;28;20053;-59
2024/04/05 08:01:33;;;;;;;3.92;1.52;;;;;;;;;;5013611;28;20054;-57
2024/04/05 08:04:00;;;;;;;4.05;1.65;;;;;;;;;;5011766;28;20052;-58
2024/04/05 08:06:26;;;;;;;6.70;2.53;;;;;;;;;;5019585;28;20454;-60
2024/04/05 08:08:52;;;;;;;6.05;1.80;;;;;;;;;;5030755;28;20464;-57
2024/04/05 08:11:19;;;;;;;4.50;1.90;;;;;;;;;;5017965;28;20049;-59
2024/04/05 08:13:45;;;;;;;4.13;1.55;;;;;;;;;;5009897;28;20050;-58
2024/04/05 08:16:14;;;;;;;4.55;2.00;;;;;;;;;;5015578;28;20056;-58
2024/04/05 08:18:39;;;;;;;3.97;1.60;;;;;;;;;;5013765;28;20050;-54
2024/04/05 08:21:07;;;;;;;3.80;1.52;;;;;;;;;;5011714;28;20524;-58
2024/04/05 08:23:33;;;;;;;4.50;1.50;;;;;;;;;;5013165;28;20054;-59
2024/04/05 08:25:59;;;;;;;3.97;1.70;;;;;;;;;;5027387;28;20053;-58
2024/04/05 08:28:25;;;;;;;2.65;1.52;;;;;;;;;;5015852;28;20049;-60
2024/04/05 08:30:52;;;;;;;6.13;2.15;;;;;;;;;;5001185;28;20053;-65
2024/04/05 08:33:20;;;;;;;6.05;1.70;;;;;;;;;;5004272;28;20432;-61
2024/04/05 08:35:52;;;;;;;4.53;1.42;;;;;;;;;;5010819;28;20072;-65
2024/04/05 08:38:18;;;;;;;3.28;1.40;;;;;;;;;;5004577;28;20468;-60
2024/04/05 08:40:45;;;;;;;3.47;1.67;;;;;;;;;;5011116;28;20049;-64
2024/04/05 08:43:15;;;;;;;5.22;1.60;;;;;;;;;;5004189;28;20049;-65
2024/04/05 08:45:42;;;;;;;4.93;1.80;;;;;;;;;;5009184;28;20045;-58
2024/04/05 08:48:09;;;;;;;5.80;1.50;;;;;;;;;;5006257;28;20057;-60
2024/04/05 08:50:39;;;;;;;3.85;1.98;;;;;;;;;;5013596;28;20048;-59
2024/04/05 08:53:07;;;;;;;5.97;1.52;;;;;;;;;;5019443;28;20057;-59
2024/04/05 08:55:37;;;;;;;5.40;1.92;;;;;;;;;;5018316;28;20046;-57
2024/04/05 08:58:05;;;;;;;4.88;1.52;;;;;;;;;;5013407;28;20045;-62
2024/04/05 09:00:33;;;;;;;5.18;1.80;;;;;;;;;;5017934;28;20046;-58
2024/04/05 09:03:00;;;;;;;2.22;1.27;;;;;;;;;;5017942;28;20127;-55
2024/04/05 09:05:27;;;;;;;4.13;1.17;;;;;;;;;;5016929;28;20053;-57
2024/04/05 09:08:04;;;;;;;5.18;1.90;;;;;;;;;;5018140;28;20057;-62
2024/04/05 09:10:31;;;;;;;3.85;1.30;;;;;;;;;;5018079;28;20575;-58
2024/04/05 09:12:57;;;;;;;3.35;1.42;;;;;;;;;;5020006;28;20053;-59
2024/04/05 09:15:25;;;;;;;3.83;1.73;;;;;;;;;;5017958;28;20049;-61
2024/04/05 09:17:51;;;;;;;4.68;1.63;;;;;;;;;;5011728;28;20061;-56
2024/04/05 09:20:19;;;;;;;3.20;1.30;;;;;;;;;;5010484;28;20066;-58
2024/04/05 09:22:46;;;;;;;2.88;1.38;;;;;;;;;;5025382;28;20068;-59
2024/04/05 09:25:17;;;;;;;4.07;1.63;;;;;;;;;;5017228;28;20514;-60
2024/04/05 09:27:43;;;;;;;5.00;2.13;;;;;;;;;;5016233;28;20494;-61
2024/04/05 09:30:10;;;;;;;4.72;1.42;;;;;;;;;;5006764;28;20057;-59
2024/04/05 09:32:37;;;;;;;3.55;1.10;;;;;;;;;;5017455;28;20050;-60
2024/04/05 09:35:09;;;;;;;5.10;1.75;;;;;;;;;;5014696;28;20050;-60
2024/04/05 09:37:35;;;;;;;3.20;1.20;;;;;;;;;;5017227;28;20054;-57
2024/04/05 09:40:10;;;;;;;2.70;1.25;;;;;;;;;;5015603;28;20059;-55
2024/04/05 09:42:39;;;;;;;2.90;1.02;;;;;;;;;;5015028;28;20054;-59
2024/04/05 09:45:07;;;;;;;2.47;1.00;;;;;;;;;;5010996;28;20054;-59
2024/04/05 09:47:33;;;;;;;3.00;1.00;;;;;;;;;;5016249;28;20061;-56
2024/04/05 09:50:00;;;;;;;3.42;1.10;;;;;;;;;;5015930;28;20419;-61
2024/04/05 09:52:33;;;;;;;2.88;1.00;;;;;;;;;;5013774;28;20056;-57
2024/04/05 09:55:01;;;;;;;2.85;1.75;;;;;;;;;;5014438;28;20532;-62
2024/04/05 09:57:29;;;;;;;3.63;1.17;;;;;;;;;;5014781;28;20053;-58
2024/04/05 09:59:58;;;;;;;3.15;1.20;;;;;;;;;;5015135;28;20049;-58
2024/04/05 10:02:26;;;;;;;3.03;1.00;;;;;;;;;;5017064;28;20084;-58
2024/04/05 10:04:53;;;;;;;3.75;1.27;;;;;;;;;;5021156;28;20103;-59
2024/04/05 10:07:25;;;;;;;3.60;1.10;;;;;;;;;;5006793;28;20072;-60
2024/04/05 10:09:52;;;;;;;4.13;0.93;;;;;;;;;;5012402;28;20092;-59
2024/04/05 10:12:21;;;;;;;2.97;1.35;;;;;;;;;;5027174;28;20053;-59
2024/04/05 10:14:53;;;;;;;3.45;1.02;;;;;;;;;;5017011;28;20460;-59
2024/04/05 10:17:26;;;;;;;3.40;1.02;;;;;;;;;;5006376;28;20050;-57
2024/04/05 10:20:03;;;;;;;1.70;1.00;;;;;;;;;;5006299;28;20046;-58
2024/04/05 10:22:29;;;;;;;2.42;1.00;;;;;;;;;;5016451;28;20045;-59
2024/04/05 10:24:56;;;;;;;2.83;1.35;;;;;;;;;;5026068;28;20103;-59
2024/04/05 10:27:24;;;;;;;2.20;1.10;;;;;;;;;;5023224;28;20096;-59
2024/04/05 10:29:59;;;;;;;2.72;1.00;;;;;;;;;;5013012;28;20042;-59
2024/04/05 10:32:26;;;;;;;2.95;1.00;;;;;;;;;;5002140;28;20058;-58
2024/04/05 10:34:53;;;;;;;2.42;0.98;;;;;;;;;;5009864;28;20476;-57
2024/04/05 10:37:19;;;;;;;2.95;0.90;;;;;;;;;;5013585;28;20050;-58
2024/04/05 10:39:46;;;;;;;2.60;1.30;;;;;;;;;;5028566;28;20053;-56
2024/04/05 10:42:23;;;;;;;3.05;1.10;;;;;;;;;;5033100;28;20049;-65
2024/04/05 10:44:55;;;;;;;3.97;1.05;;;;;;;;;;5032790;28;20046;-59
2024/04/05 10:47:21;;;;;;;3.30;0.90;;;;;;;;;;5011046;28;20085;-59
2024/04/05 10:49:59;;;;;;;1.60;0.85;;;;;;;;;;5013149;28;20081;-59
2024/04/05 10:52:24;;;;;;;2.47;1.02;;;;;;;;;;5013031;28;20046;-60
2024/04/05 10:54:51;;;;;;;3.53;1.10;;;;;;;;;;5012792;28;20045;-60
2024/04/05 10:57:19;;;;;;;3.88;1.00;;;;;;;;;;5012806;28;20060;-59
2024/04/05 10:59:46;;;;;;;2.67;1.35;;;;;;;;;;5013133;28;20083;-59
2024/04/05 11:02:12;;;;;;;2.22;1.00;;;;;;;;;;5012429;28;20490;-60
2024/04/05 11:04:39;;;;;;;2.92;0.90;;;;;;;;;;5012163;28;20049;-60
2024/04/05 11:07:06;;;;;;;3.65;1.02;;;;;;;;;;5012791;28;20058;-60
2024/04/05 11:09:35;;;;;;;3.97;1.27;;;;;;;;;;5013091;28;20129;-60
2024/04/05 11:12:02;;;;;;;2.60;0.90;;;;;;;;;;5011868;28;20058;-60
2024/04/05 11:14:29;;;;;;;1.77;0.70;;;;;;;;;;5023999;28;20053;-60
2024/04/05 11:16:58;;;;;;;3.55;0.80;;;;;;;;;;5029037;28;20053;-59
2024/04/05 11:19:25;;;;;;;2.75;0.80;;;;;;;;;;5032606;28;20059;-59
2024/04/05 11:21:51;;;;;;;3.15;0.90;;;;;;;;;;5032469;28;20049;-60
2024/04/05 11:24:26;;;;;;;3.20;1.00;;;;;;;;;;5088990;27;20375;-60
2024/04/05 11:26:52;;;;;;;3.67;1.42;;;;;;;;;;5088896;28;20059;-59
2024/04/05 11:29:20;;;;;;;2.67;1.13;;;;;;;;;;5070508;28;20984;-64
2024/04/05 11:31:46;;;;;;;5.38;2.03;;;;;;;;;;5064379;28;20048;-59
2024/04/05 11:34:13;;;;;;;6.57;1.60;;;;;;;;;;5056660;28;20125;-59
2024/04/05 11:36:39;;;;;;;2.85;1.23;;;;;;;;;;5057404;28;20497;-60
2024/04/05 11:39:06;;;;;;;2.58;1.00;;;;;;;;;;5066953;28;20055;-60
2024/04/05 11:41:33;;;;;;;2.58;0.90;;;;;;;;;;5079780;28;20427;-60
2024/04/05 11:44:00;;;;;;;2.13;0.80;;;;;;;;;;5066732;28;20075;-59
2024/04/05 11:46:26;;;;;;;2.70;0.80;;;;;;;;;;5081084;28;20056;-59
2024/04/05 11:48:54;;;;;;;2.92;0.93;;;;;;;;;;5088331;28;20106;-61
2024/04/05 11:51:19;;;;;;;3.13;1.00;;;;;;;;;;5088465;28;20093;-59
2024/04/05 11:53:46;;;;;;;2.85;1.08;;;;;;;;;;5088227;28;20048;-59
2024/04/05 11:56:12;;;;;;;1.67;0.80;;;;;;;;;;5088065;28;20056;-59
2024/04/05 11:58:40;;;;;;;7.25;2.08;;;;;;;;;;5088318;28;20150;-59
2024/04/05 12:01:06;;;;;;;5.18;1.75;;;;;;;;;;5088595;28;20427;-61
2024/04/05 12:03:33;;;;;;;2.85;1.20;;;;;;;;;;5072786;28;20037;-59
2024/04/05 12:06:00;;;;;;;2.58;0.95;;;;;;;;;;5060907;28;20049;-59
2024/04/05 12:08:27;;;;;;;5.55;1.10;;;;;;;;;;5068450;28;20508;-60
2024/04/05 12:10:53;;;;;;;3.83;1.20;;;;;;;;;;5064747;28;20492;-60
2024/04/05 12:13:20;;;;;;;2.17;0.77;;;;;;;;;;5068175;28;20040;-59
2024/04/05 12:15:47;;;;;;;2.28;0.90;;;;;;;;;;5067902;28;20049;-60
2024/04/05 12:18:14;;;;;;;3.70;0.90;;;;;;;;;;5087285;28;20135;-60
2024/04/05 12:20:45;;;;;;;4.70;1.00;;;;;;;;;;5067544;28;20044;-60
2024/04/05 12:23:12;;;;;;;1.10;0.70;;;;;;;;;;5067586;28;20140;-60
2024/04/05 12:25:38;;;;;;;3.25;0.85;;;;;;;;;;5066533;28;20089;-60
2024/04/05 12:28:05;;;;;;;2.00;0.77;;;;;;;;;;5065368;28;20040;-59
2024/04/05 12:30:31;;;;;;;2.63;0.90;;;;;;;;;;5067587;28;20492;-59
2024/04/05 12:32:59;;;;;;;1.95;1.00;;;;;;;;;;5076266;28;20055;-60
2024/04/05 12:35:25;;;;;;;2.25;0.70;;;;;;;;;;5076176;28;20052;-60
2024/04/05 12:37:54;;;;;;;2.28;0.88;;;;;;;;;;5074255;28;20053;-60
2024/04/05 12:40:25;;;;;;;1.85;0.82;;;;;;;;;;5074291;28;20055;-60
2024/04/05 12:42:51;;;;;;;4.05;1.30;;;;;;;;;;5074348;28;20052;-60
2024/04/05 12:45:17;;;;;;;3.20;1.38;;;;;;;;;;5052196;28;20056;-60
2024/04/05 12:47:44;;;;;;;1.95;0.93;;;;;;;;;;5054615;28;20041;-60
2024/04/05 12:50:11;;;;;;;2.63;0.90;;;;;;;;;;5050052;28;20052;-60
2024/04/05 12:52:38;;;;;;;3.33;0.93;;;;;;;;;;5054980;28;20049;-60
2024/04/05 12:55:05;;;;;;;2.42;1.33;;;;;;;;;;5053421;28;20051;-60
2024/04/05 12:57:32;;;;;;;2.05;0.80;;;;;;;;;;5067296;28;20100;-59
2024/04/05 12:59:58;;;;;;;3.28;1.00;;;;;;;;;;5074021;28;20106;-59
2024/04/05 13:02:25;;;;;;;1.70;0.70;;;;;;;;;;5071494;28;20113;-59
2024/04/05 13:04:51;;;;;;;3.22;0.80;;;;;;;;;;5069610;28;20424;-59
2024/04/05 13:07:19;;;;;;;2.65;1.02;;;;;;;;;;5073394;28;20064;-59
2024/04/05 13:09:46;;;;;;;3.53;0.88;;;;;;;;;;5074053;28;20049;-59
2024/04/05 13:12:13;;;;;;;2.15;1.00;;;;;;;;;;5073778;28;20397;-60
2024/04/05 13:14:38;;;;;;;3.97;1.50;;;;;;;;;;5073554;28;20051;-59
2024/04/05 13:17:06;;;;;;;3.50;1.00;;;;;;;;;;5073506;28;20048;-59
2024/04/05 13:19:32;;;;;;;1.98;0.70;;;;;;;;;;5073276;28;20055;-59
2024/04/05 13:21:59;;;;;;;2.60;0.70;;;;;;;;;;5073260;28;20060;-59
2024/04/05 13:24:28;;;;;;;1.60;0.80;;;;;;;;;;5073187;28;20056;-59
2024/04/05 13:26:55;;;;;;;2.75;1.00;;;;;;;;;;5073527;28;20393;-59
2024/04/05 13:29:21;;;;;;;2.42;0.93;;;;;;;;;;5073175;28;20052;-60
2024/04/05 13:31:48;;;;;;;2.72;0.80;;;;;;;;;;5073247;28;20052;-60
2024/04/05 13:34:14;;;;;;;2.47;1.00;;;;;;;;;;5072661;28;20056;-60
2024/04/05 13:36:42;;;;;;;4.15;1.00;;;;;;;;;;5073248;28;20514;-60
2024/04/05 13:39:09;;;;;;;1.40;0.70;;;;;;;;;;5073087;28;20058;-59
2024/04/05 13:41:37;;;;;;;0.88;0.57;;;;;;;;;;5073193;28;20542;-60
2024/04/05 13:44:04;;;;;;;2.70;0.70;;;;;;;;;;5068255;28;20124;-60
2024/04/05 13:46:31;;;;;;;2.63;0.90;;;;;;;;;;5053171;28;20041;-60
2024/04/05 13:48:57;;;;;;;3.35;0.80;;;;;;;;;;5054964;28;20836;-59
2024/04/05 13:51:27;;;;;;;2.90;0.80;;;;;;;;;;5054613;28;20045;-60
2024/04/05 13:53:53;;;;;;;;;;;;;;;;;;5053077;28;20549;-60
2024/04/05 13:56:21;;;;;;;3.65;0.90;;;;;;;;;;5064110;28;19924;-60
2024/04/05 13:58:49;;;;;;;3.00;0.93;;;;;;;;;;5072606;28;20052;-60
2024/04/05 14:01:16;;;;;;;3.53;1.10;;;;;;;;;;5072480;28;20052;-60
2024/04/05 14:03:42;;;;;;;1.77;0.70;;;;;;;;;;5065932;28;20049;-60
2024/04/05 14:06:10;;;;;;;2.35;0.80;;;;;;;;;;5054948;28;20068;-60
2024/04/05 14:08:36;;;;;;;2.65;0.82;;;;;;;;;;5052376;28;20052;-60
2024/04/05 14:11:04;;;;;;;3.53;0.80;;;;;;;;;;5053500;28;20145;-60
2024/04/05 14:13:30;;;;;;;1.90;0.70;;;;;;;;;;5072551;28;20114;-60
2024/04/05 14:15:59;;;;;;;1.73;0.80;;;;;;;;;;5071944;28;20470;-60
2024/04/05 14:18:25;;;;;;;1.92;0.77;;;;;;;;;;5072456;28;20392;-60
2024/04/05 14:20:53;;;;;;;2.30;0.77;;;;;;;;;;5072215;28;20060;-60
2024/04/05 14:23:19;;;;;;;1.58;0.73;;;;;;;;;;5071199;28;20079;-59
2024/04/05 14:25:48;;;;;;;2.75;1.00;;;;;;;;;;5066526;28;20049;-60
2024/04/05 14:28:13;;;;;;;1.90;0.70;;;;;;;;;;5071989;28;20512;-60
2024/04/05 14:30:44;;;;;;;2.80;0.70;;;;;;;;;;5071970;28;20063;-60
2024/04/05 14:33:11;;;;;;;2.03;0.80;;;;;;;;;;5072403;28;20040;-60
2024/04/05 14:35:38;;;;;;;4.40;1.17;;;;;;;;;;5070569;28;20102;-59
2024/04/05 14:38:04;;;;;;;2.72;0.85;;;;;;;;;;5048907;28;20045;-60
2024/04/05 14:40:32;;;;;;;1.52;1.05;;;;;;;;;;5053557;28;20137;-60
2024/04/05 14:42:57;;;;;;;2.67;0.77;;;;;;;;;;5051929;28;20511;-60